sensor_id;sensor_type;location;lat;lon;timestamp;P1;durP1;ratioP1;P2;durP2;ratioP2
34741;SDS011;20968;42.696;23.360;2022-07-29T00:00:08;8.80;;;6.75;;
34741;SDS011;20968;42.696;23.360;2022-07-29T00:02:34;10.90;;;6.82;;
34741;SDS011;20968;42.696;23.360;2022-07-29T00:05:00;7.75;;;6.95;;
34741;SDS011;20968;42.696;23.360;2022-07-29T00:07:26;9.13;;;7.30;;
34741;SDS011;20968;42.696;23.360;2022-07-29T00:09:52;6.95;;;6.15;;
34741;SDS011;20968;42.696;23.360;2022-07-29T00:12:17;6.90;;;6.18;;
34741;SDS011;20968;42.696;23.360;2022-07-29T00:14:43;6.60;;;5.82;;
34741;SDS011;20968;42.696;23.360;2022-07-29T00:17:09;10.38;;;7.20;;
34741;SDS011;20968;42.696;23.360;2022-07-29T00:19:34;10.77;;;6.07;;
34741;SDS011;20968;42.696;23.360;2022-07-29T00:22:00;8.35;;;7.32;;
34741;SDS011;20968;42.696;23.360;2022-07-29T00:24:26;7.35;;;6.60;;
34741;SDS011;20968;42.696;23.360;2022-07-29T00:26:52;7.07;;;6.18;;
34741;SDS011;20968;42.696;23.360;2022-07-29T00:29:17;10.82;;;6.03;;
34741;SDS011;20968;42.696;23.360;2022-07-29T00:31:43;7.40;;;6.30;;
34741;SDS011;20968;42.696;23.360;2022-07-29T00:34:08;9.35;;;7.63;;
34741;SDS011;20968;42.696;23.360;2022-07-29T00:36:54;10.00;;;6.72;;
34741;SDS011;20968;42.696;23.360;2022-07-29T00:39:19;8.88;;;7.38;;
34741;SDS011;20968;42.696;23.360;2022-07-29T00:41:44;7.57;;;6.72;;
34741;SDS011;20968;42.696;23.360;2022-07-29T00:44:10;9.65;;;6.88;;
34741;SDS011;20968;42.696;23.360;2022-07-29T00:46:35;8.75;;;7.60;;
34741;SDS011;20968;42.696;23.360;2022-07-29T00:49:00;13.07;;;7.80;;
34741;SDS011;20968;42.696;23.360;2022-07-29T00:51:26;10.88;;;7.88;;
34741;SDS011;20968;42.696;23.360;2022-07-29T00:53:52;9.65;;;7.90;;
34741;SDS011;20968;42.696;23.360;2022-07-29T00:56:18;11.65;;;7.22;;
34741;SDS011;20968;42.696;23.360;2022-07-29T00:58:44;10.23;;;7.88;;
34741;SDS011;20968;42.696;23.360;2022-07-29T01:01:12;10.75;;;8.23;;
34741;SDS011;20968;42.696;23.360;2022-07-29T01:03:37;12.13;;;8.77;;
34741;SDS011;20968;42.696;23.360;2022-07-29T01:06:03;16.02;;;10.15;;
34741;SDS011;20968;42.696;23.360;2022-07-29T01:08:29;15.85;;;9.18;;
34741;SDS011;20968;42.696;23.360;2022-07-29T01:10:57;12.18;;;9.00;;
34741;SDS011;20968;42.696;23.360;2022-07-29T01:13:25;14.43;;;11.07;;
34741;SDS011;20968;42.696;23.360;2022-07-29T01:15:52;13.77;;;9.45;;
34741;SDS011;20968;42.696;23.360;2022-07-29T01:18:23;15.70;;;9.60;;
34741;SDS011;20968;42.696;23.360;2022-07-29T01:29:07;16.30;;;11.63;;
34741;SDS011;20968;42.696;23.360;2022-07-29T01:34:25;17.65;;;11.15;;
34741;SDS011;20968;42.696;23.360;2022-07-29T01:36:57;15.57;;;10.60;;
34741;SDS011;20968;42.696;23.360;2022-07-29T01:39:47;13.10;;;10.85;;
34741;SDS011;20968;42.696;23.360;2022-07-29T01:47:43;19.50;;;11.50;;
34741;SDS011;20968;42.696;23.360;2022-07-29T01:50:16;20.23;;;12.65;;
34741;SDS011;20968;42.696;23.360;2022-07-29T01:55:40;15.50;;;13.18;;
34741;SDS011;20968;42.696;23.360;2022-07-29T01:58:09;18.70;;;11.57;;
34741;SDS011;20968;42.696;23.360;2022-07-29T02:00:37;14.70;;;12.52;;
34741;SDS011;20968;42.696;23.360;2022-07-29T02:03:05;11.73;;;10.02;;
34741;SDS011;20968;42.696;23.360;2022-07-29T02:05:35;12.63;;;10.90;;
34741;SDS011;20968;42.696;23.360;2022-07-29T02:08:03;13.27;;;10.38;;
34741;SDS011;20968;42.696;23.360;2022-07-29T02:10:31;19.27;;;12.55;;
34741;SDS011;20968;42.696;23.360;2022-07-29T02:12:58;14.45;;;11.60;;
34741;SDS011;20968;42.696;23.360;2022-07-29T02:15:24;13.43;;;11.13;;
34741;SDS011;20968;42.696;23.360;2022-07-29T02:17:58;14.32;;;10.63;;
34741;SDS011;20968;42.696;23.360;2022-07-29T02:20:30;14.45;;;11.35;;
34741;SDS011;20968;42.696;23.360;2022-07-29T02:22:58;16.77;;;11.32;;
34741;SDS011;20968;42.696;23.360;2022-07-29T02:25:24;17.70;;;13.55;;
34741;SDS011;20968;42.696;23.360;2022-07-29T02:27:52;17.35;;;11.35;;
34741;SDS011;20968;42.696;23.360;2022-07-29T02:30:19;14.43;;;11.73;;
34741;SDS011;20968;42.696;23.360;2022-07-29T02:32:47;14.43;;;12.10;;
34741;SDS011;20968;42.696;23.360;2022-07-29T02:35:15;15.15;;;12.05;;
34741;SDS011;20968;42.696;23.360;2022-07-29T02:37:43;18.73;;;13.38;;
34741;SDS011;20968;42.696;23.360;2022-07-29T02:40:30;18.17;;;14.75;;
34741;SDS011;20968;42.696;23.360;2022-07-29T02:42:57;22.58;;;14.82;;
34741;SDS011;20968;42.696;23.360;2022-07-29T02:45:23;21.13;;;14.55;;
34741;SDS011;20968;42.696;23.360;2022-07-29T02:47:49;28.23;;;16.02;;
34741;SDS011;20968;42.696;23.360;2022-07-29T02:50:17;24.50;;;16.98;;
34741;SDS011;20968;42.696;23.360;2022-07-29T02:52:50;28.63;;;17.10;;
34741;SDS011;20968;42.696;23.360;2022-07-29T02:55:25;21.75;;;15.57;;
34741;SDS011;20968;42.696;23.360;2022-07-29T02:57:57;23.85;;;15.13;;
34741;SDS011;20968;42.696;23.360;2022-07-29T03:00:29;22.42;;;15.23;;
34741;SDS011;20968;42.696;23.360;2022-07-29T03:03:00;24.33;;;14.05;;
34741;SDS011;20968;42.696;23.360;2022-07-29T03:05:29;16.35;;;12.60;;
34741;SDS011;20968;42.696;23.360;2022-07-29T03:07:57;15.13;;;12.32;;
34741;SDS011;20968;42.696;23.360;2022-07-29T03:10:25;18.05;;;12.63;;
34741;SDS011;20968;42.696;23.360;2022-07-29T03:12:51;18.50;;;11.73;;
34741;SDS011;20968;42.696;23.360;2022-07-29T03:15:19;18.42;;;13.13;;
34741;SDS011;20968;42.696;23.360;2022-07-29T03:17:45;17.55;;;12.20;;
34741;SDS011;20968;42.696;23.360;2022-07-29T03:20:11;18.38;;;12.43;;
34741;SDS011;20968;42.696;23.360;2022-07-29T03:22:41;16.50;;;13.00;;
34741;SDS011;20968;42.696;23.360;2022-07-29T03:25:09;18.63;;;12.05;;
34741;SDS011;20968;42.696;23.360;2022-07-29T03:27:38;13.18;;;11.60;;
34741;SDS011;20968;42.696;23.360;2022-07-29T03:30:04;17.40;;;12.00;;
34741;SDS011;20968;42.696;23.360;2022-07-29T03:32:31;17.83;;;12.43;;
34741;SDS011;20968;42.696;23.360;2022-07-29T03:34:56;14.73;;;11.98;;
34741;SDS011;20968;42.696;23.360;2022-07-29T03:37:21;15.85;;;13.20;;
34741;SDS011;20968;42.696;23.360;2022-07-29T03:39:47;15.48;;;12.23;;
34741;SDS011;20968;42.696;23.360;2022-07-29T03:42:16;15.38;;;12.93;;
34741;SDS011;20968;42.696;23.360;2022-07-29T03:44:45;22.73;;;13.95;;
34741;SDS011;20968;42.696;23.360;2022-07-29T03:47:13;18.25;;;11.98;;
34741;SDS011;20968;42.696;23.360;2022-07-29T03:49:40;20.05;;;11.18;;
34741;SDS011;20968;42.696;23.360;2022-07-29T03:52:06;15.45;;;10.90;;
34741;SDS011;20968;42.696;23.360;2022-07-29T03:54:33;16.23;;;10.95;;
34741;SDS011;20968;42.696;23.360;2022-07-29T03:56:59;15.05;;;11.60;;
34741;SDS011;20968;42.696;23.360;2022-07-29T03:59:26;18.33;;;10.85;;
34741;SDS011;20968;42.696;23.360;2022-07-29T04:01:52;14.00;;;9.27;;
34741;SDS011;20968;42.696;23.360;2022-07-29T04:04:18;14.07;;;10.32;;
34741;SDS011;20968;42.696;23.360;2022-07-29T04:06:45;10.80;;;8.82;;
34741;SDS011;20968;42.696;23.360;2022-07-29T04:09:11;11.15;;;9.45;;
34741;SDS011;20968;42.696;23.360;2022-07-29T04:11:40;12.48;;;8.07;;
34741;SDS011;20968;42.696;23.360;2022-07-29T04:14:06;12.27;;;7.97;;
34741;SDS011;20968;42.696;23.360;2022-07-29T04:16:32;19.50;;;9.38;;
34741;SDS011;20968;42.696;23.360;2022-07-29T04:18:57;13.30;;;9.65;;
34741;SDS011;20968;42.696;23.360;2022-07-29T04:21:23;12.25;;;9.18;;
34741;SDS011;20968;42.696;23.360;2022-07-29T04:23:49;12.23;;;8.05;;
34741;SDS011;20968;42.696;23.360;2022-07-29T04:26:15;15.10;;;9.48;;
34741;SDS011;20968;42.696;23.360;2022-07-29T04:28:41;8.90;;;7.82;;
34741;SDS011;20968;42.696;23.360;2022-07-29T04:31:07;12.77;;;9.23;;
34741;SDS011;20968;42.696;23.360;2022-07-29T04:33:33;11.80;;;9.00;;
34741;SDS011;20968;42.696;23.360;2022-07-29T04:35:59;12.75;;;9.43;;
34741;SDS011;20968;42.696;23.360;2022-07-29T04:38:24;10.75;;;7.80;;
34741;SDS011;20968;42.696;23.360;2022-07-29T04:40:49;18.02;;;9.40;;
34741;SDS011;20968;42.696;23.360;2022-07-29T04:43:15;13.68;;;8.60;;
34741;SDS011;20968;42.696;23.360;2022-07-29T04:45:40;9.85;;;7.88;;
34741;SDS011;20968;42.696;23.360;2022-07-29T04:48:06;12.60;;;8.50;;
34741;SDS011;20968;42.696;23.360;2022-07-29T04:50:31;10.18;;;7.25;;
34741;SDS011;20968;42.696;23.360;2022-07-29T04:52:57;12.68;;;7.90;;
34741;SDS011;20968;42.696;23.360;2022-07-29T04:55:22;9.85;;;6.65;;
34741;SDS011;20968;42.696;23.360;2022-07-29T04:57:48;9.88;;;7.03;;
34741;SDS011;20968;42.696;23.360;2022-07-29T05:00:13;14.27;;;6.88;;
34741;SDS011;20968;42.696;23.360;2022-07-29T05:02:39;9.05;;;6.90;;
34741;SDS011;20968;42.696;23.360;2022-07-29T05:05:05;11.65;;;7.53;;
34741;SDS011;20968;42.696;23.360;2022-07-29T05:07:30;15.38;;;7.15;;
34741;SDS011;20968;42.696;23.360;2022-07-29T05:09:56;13.60;;;7.63;;
34741;SDS011;20968;42.696;23.360;2022-07-29T05:12:22;10.52;;;6.40;;
34741;SDS011;20968;42.696;23.360;2022-07-29T05:14:50;14.88;;;7.05;;
34741;SDS011;20968;42.696;23.360;2022-07-29T05:17:16;11.25;;;6.97;;
34741;SDS011;20968;42.696;23.360;2022-07-29T05:19:42;10.75;;;6.30;;
34741;SDS011;20968;42.696;23.360;2022-07-29T05:22:07;13.40;;;6.63;;
34741;SDS011;20968;42.696;23.360;2022-07-29T05:24:33;15.43;;;6.03;;
34741;SDS011;20968;42.696;23.360;2022-07-29T05:26:58;11.70;;;6.70;;
34741;SDS011;20968;42.696;23.360;2022-07-29T05:29:24;7.35;;;6.47;;
34741;SDS011;20968;42.696;23.360;2022-07-29T05:31:49;6.90;;;6.20;;
34741;SDS011;20968;42.696;23.360;2022-07-29T05:34:16;9.98;;;6.05;;
34741;SDS011;20968;42.696;23.360;2022-07-29T05:36:41;7.57;;;5.82;;
34741;SDS011;20968;42.696;23.360;2022-07-29T05:39:07;7.40;;;6.45;;
34741;SDS011;20968;42.696;23.360;2022-07-29T05:41:32;10.10;;;5.68;;
34741;SDS011;20968;42.696;23.360;2022-07-29T05:43:58;7.53;;;6.03;;
34741;SDS011;20968;42.696;23.360;2022-07-29T05:46:23;8.95;;;5.60;;
34741;SDS011;20968;42.696;23.360;2022-07-29T05:48:49;17.30;;;5.43;;
34741;SDS011;20968;42.696;23.360;2022-07-29T05:51:14;7.60;;;4.82;;
34741;SDS011;20968;42.696;23.360;2022-07-29T05:53:40;7.78;;;5.20;;
34741;SDS011;20968;42.696;23.360;2022-07-29T05:56:05;5.53;;;4.63;;
34741;SDS011;20968;42.696;23.360;2022-07-29T05:58:31;10.88;;;5.65;;
34741;SDS011;20968;42.696;23.360;2022-07-29T06:00:57;11.13;;;5.03;;
34741;SDS011;20968;42.696;23.360;2022-07-29T06:03:25;5.55;;;4.93;;
34741;SDS011;20968;42.696;23.360;2022-07-29T06:05:51;11.65;;;4.53;;
34741;SDS011;20968;42.696;23.360;2022-07-29T06:08:17;5.85;;;4.90;;
34741;SDS011;20968;42.696;23.360;2022-07-29T06:10:42;5.57;;;4.55;;
34741;SDS011;20968;42.696;23.360;2022-07-29T06:13:08;7.60;;;5.63;;
34741;SDS011;20968;42.696;23.360;2022-07-29T06:15:33;7.85;;;6.47;;
34741;SDS011;20968;42.696;23.360;2022-07-29T06:17:59;13.38;;;5.28;;
34741;SDS011;20968;42.696;23.360;2022-07-29T06:20:24;8.43;;;4.38;;
34741;SDS011;20968;42.696;23.360;2022-07-29T06:22:50;8.35;;;5.47;;
34741;SDS011;20968;42.696;23.360;2022-07-29T06:25:15;6.90;;;4.80;;
34741;SDS011;20968;42.696;23.360;2022-07-29T06:27:41;6.22;;;4.63;;
34741;SDS011;20968;42.696;23.360;2022-07-29T06:30:06;9.93;;;4.93;;
34741;SDS011;20968;42.696;23.360;2022-07-29T06:32:32;10.43;;;4.78;;
34741;SDS011;20968;42.696;23.360;2022-07-29T06:34:58;9.98;;;4.40;;
34741;SDS011;20968;42.696;23.360;2022-07-29T06:37:24;7.40;;;4.57;;
34741;SDS011;20968;42.696;23.360;2022-07-29T06:39:49;11.73;;;4.25;;
34741;SDS011;20968;42.696;23.360;2022-07-29T06:42:35;6.03;;;4.15;;
34741;SDS011;20968;42.696;23.360;2022-07-29T06:45:00;7.25;;;3.75;;
34741;SDS011;20968;42.696;23.360;2022-07-29T06:47:26;4.28;;;3.83;;
34741;SDS011;20968;42.696;23.360;2022-07-29T06:49:51;9.07;;;4.35;;
34741;SDS011;20968;42.696;23.360;2022-07-29T06:52:16;4.72;;;3.75;;
34741;SDS011;20968;42.696;23.360;2022-07-29T06:54:42;4.97;;;3.72;;
34741;SDS011;20968;42.696;23.360;2022-07-29T06:57:12;9.75;;;3.72;;
34741;SDS011;20968;42.696;23.360;2022-07-29T06:59:38;3.58;;;2.85;;
34741;SDS011;20968;42.696;23.360;2022-07-29T07:02:03;3.42;;;3.08;;
34741;SDS011;20968;42.696;23.360;2022-07-29T07:04:29;3.53;;;2.97;;
34741;SDS011;20968;42.696;23.360;2022-07-29T07:06:54;4.78;;;3.97;;
34741;SDS011;20968;42.696;23.360;2022-07-29T07:09:20;3.13;;;2.70;;
34741;SDS011;20968;42.696;23.360;2022-07-29T07:11:46;5.78;;;3.03;;
34741;SDS011;20968;42.696;23.360;2022-07-29T07:14:11;5.90;;;3.25;;
34741;SDS011;20968;42.696;23.360;2022-07-29T07:16:37;4.38;;;2.83;;
34741;SDS011;20968;42.696;23.360;2022-07-29T07:19:02;5.45;;;2.85;;
34741;SDS011;20968;42.696;23.360;2022-07-29T07:21:28;4.47;;;3.30;;
34741;SDS011;20968;42.696;23.360;2022-07-29T07:23:53;4.82;;;2.67;;
34741;SDS011;20968;42.696;23.360;2022-07-29T07:26:19;5.85;;;3.15;;
34741;SDS011;20968;42.696;23.360;2022-07-29T07:28:44;5.97;;;2.90;;
34741;SDS011;20968;42.696;23.360;2022-07-29T07:31:10;8.20;;;3.55;;
34741;SDS011;20968;42.696;23.360;2022-07-29T07:33:35;7.18;;;3.38;;
34741;SDS011;20968;42.696;23.360;2022-07-29T07:36:01;5.25;;;3.20;;
34741;SDS011;20968;42.696;23.360;2022-07-29T07:38:26;4.05;;;3.35;;
34741;SDS011;20968;42.696;23.360;2022-07-29T07:40:51;5.93;;;2.75;;
34741;SDS011;20968;42.696;23.360;2022-07-29T07:43:17;3.53;;;3.22;;
34741;SDS011;20968;42.696;23.360;2022-07-29T07:45:42;5.55;;;2.40;;
34741;SDS011;20968;42.696;23.360;2022-07-29T07:48:08;4.38;;;3.08;;
34741;SDS011;20968;42.696;23.360;2022-07-29T07:50:35;12.25;;;2.90;;
34741;SDS011;20968;42.696;23.360;2022-07-29T07:53:02;7.95;;;3.15;;
34741;SDS011;20968;42.696;23.360;2022-07-29T07:55:28;5.68;;;3.47;;
34741;SDS011;20968;42.696;23.360;2022-07-29T07:57:54;5.15;;;2.90;;
34741;SDS011;20968;42.696;23.360;2022-07-29T08:00:20;5.75;;;3.70;;
34741;SDS011;20968;42.696;23.360;2022-07-29T08:02:46;4.43;;;3.08;;
34741;SDS011;20968;42.696;23.360;2022-07-29T08:05:11;4.13;;;2.42;;
34741;SDS011;20968;42.696;23.360;2022-07-29T08:07:41;4.93;;;2.72;;
34741;SDS011;20968;42.696;23.360;2022-07-29T08:10:07;2.83;;;2.53;;
34741;SDS011;20968;42.696;23.360;2022-07-29T08:12:33;6.90;;;3.00;;
34741;SDS011;20968;42.696;23.360;2022-07-29T08:15:00;4.45;;;2.55;;
34741;SDS011;20968;42.696;23.360;2022-07-29T08:17:25;3.28;;;2.40;;
34741;SDS011;20968;42.696;23.360;2022-07-29T08:19:51;5.30;;;2.78;;
34741;SDS011;20968;42.696;23.360;2022-07-29T08:22:17;4.30;;;2.47;;
34741;SDS011;20968;42.696;23.360;2022-07-29T08:24:42;5.03;;;2.85;;
34741;SDS011;20968;42.696;23.360;2022-07-29T08:27:08;2.53;;;2.05;;
34741;SDS011;20968;42.696;23.360;2022-07-29T08:29:35;4.35;;;2.95;;
34741;SDS011;20968;42.696;23.360;2022-07-29T08:32:10;4.25;;;2.65;;
34741;SDS011;20968;42.696;23.360;2022-07-29T08:34:35;3.33;;;2.47;;
34741;SDS011;20968;42.696;23.360;2022-07-29T08:37:01;2.15;;;1.92;;
34741;SDS011;20968;42.696;23.360;2022-07-29T08:39:26;4.22;;;2.55;;
34741;SDS011;20968;42.696;23.360;2022-07-29T08:41:51;3.30;;;2.67;;
34741;SDS011;20968;42.696;23.360;2022-07-29T08:44:18;6.93;;;2.45;;
34741;SDS011;20968;42.696;23.360;2022-07-29T08:46:44;2.80;;;2.60;;
34741;SDS011;20968;42.696;23.360;2022-07-29T08:49:10;5.13;;;2.65;;
34741;SDS011;20968;42.696;23.360;2022-07-29T08:51:36;3.22;;;2.65;;
34741;SDS011;20968;42.696;23.360;2022-07-29T08:54:03;3.55;;;2.22;;
34741;SDS011;20968;42.696;23.360;2022-07-29T08:56:30;2.90;;;2.40;;
34741;SDS011;20968;42.696;23.360;2022-07-29T08:58:56;2.95;;;2.40;;
34741;SDS011;20968;42.696;23.360;2022-07-29T09:01:24;3.83;;;2.65;;
34741;SDS011;20968;42.696;23.360;2022-07-29T09:03:54;3.28;;;2.38;;
34741;SDS011;20968;42.696;23.360;2022-07-29T09:06:21;3.92;;;2.72;;
34741;SDS011;20968;42.696;23.360;2022-07-29T09:08:50;3.95;;;2.50;;
34741;SDS011;20968;42.696;23.360;2022-07-29T09:11:16;3.40;;;2.50;;
34741;SDS011;20968;42.696;23.360;2022-07-29T09:13:42;2.50;;;2.30;;
34741;SDS011;20968;42.696;23.360;2022-07-29T09:16:07;4.05;;;2.67;;
34741;SDS011;20968;42.696;23.360;2022-07-29T09:18:39;3.03;;;2.20;;
34741;SDS011;20968;42.696;23.360;2022-07-29T09:21:07;2.33;;;2.08;;
34741;SDS011;20968;42.696;23.360;2022-07-29T09:26:41;5.15;;;2.63;;
34741;SDS011;20968;42.696;23.360;2022-07-29T09:29:09;8.88;;;4.20;;
34741;SDS011;20968;42.696;23.360;2022-07-29T09:31:38;3.75;;;2.50;;
34741;SDS011;20968;42.696;23.360;2022-07-29T09:34:06;2.75;;;2.55;;
34741;SDS011;20968;42.696;23.360;2022-07-29T09:36:45;3.38;;;2.40;;
34741;SDS011;20968;42.696;23.360;2022-07-29T09:39:12;3.50;;;2.33;;
34741;SDS011;20968;42.696;23.360;2022-07-29T09:41:49;3.50;;;2.63;;
34741;SDS011;20968;42.696;23.360;2022-07-29T09:44:19;2.83;;;2.42;;
34741;SDS011;20968;42.696;23.360;2022-07-29T09:46:56;3.65;;;2.65;;
34741;SDS011;20968;42.696;23.360;2022-07-29T09:49:23;8.35;;;2.30;;
34741;SDS011;20968;42.696;23.360;2022-07-29T09:51:59;6.88;;;2.60;;
34741;SDS011;20968;42.696;23.360;2022-07-29T09:54:26;2.60;;;2.30;;
34741;SDS011;20968;42.696;23.360;2022-07-29T09:56:53;2.80;;;1.88;;
34741;SDS011;20968;42.696;23.360;2022-07-29T09:59:20;2.67;;;2.38;;
34741;SDS011;20968;42.696;23.360;2022-07-29T10:01:49;2.38;;;1.85;;
34741;SDS011;20968;42.696;23.360;2022-07-29T10:04:15;2.58;;;2.05;;
34741;SDS011;20968;42.696;23.360;2022-07-29T10:09:26;4.32;;;2.28;;
34741;SDS011;20968;42.696;23.360;2022-07-29T10:12:04;2.03;;;1.80;;
34741;SDS011;20968;42.696;23.360;2022-07-29T10:14:39;1.95;;;1.75;;
34741;SDS011;20968;42.696;23.360;2022-07-29T10:17:06;2.95;;;2.28;;
34741;SDS011;20968;42.696;23.360;2022-07-29T10:19:32;3.03;;;2.17;;
34741;SDS011;20968;42.696;23.360;2022-07-29T10:21:59;6.18;;;2.30;;
34741;SDS011;20968;42.696;23.360;2022-07-29T10:24:26;3.63;;;1.77;;
34741;SDS011;20968;42.696;23.360;2022-07-29T10:26:54;1.92;;;1.80;;
34741;SDS011;20968;42.696;23.360;2022-07-29T10:29:21;2.53;;;2.13;;
34741;SDS011;20968;42.696;23.360;2022-07-29T10:32:34;3.85;;;2.00;;
34741;SDS011;20968;42.696;23.360;2022-07-29T10:40:39;4.78;;;2.22;;
34741;SDS011;20968;42.696;23.360;2022-07-29T10:43:32;1.88;;;1.77;;
34741;SDS011;20968;42.696;23.360;2022-07-29T10:46:01;3.95;;;2.30;;
34741;SDS011;20968;42.696;23.360;2022-07-29T10:48:28;3.65;;;2.13;;
34741;SDS011;20968;42.696;23.360;2022-07-29T10:53:25;3.92;;;2.00;;
34741;SDS011;20968;42.696;23.360;2022-07-29T10:56:26;2.70;;;2.20;;
34741;SDS011;20968;42.696;23.360;2022-07-29T11:01:52;2.80;;;2.60;;
34741;SDS011;20968;42.696;23.360;2022-07-29T11:07:09;3.35;;;2.30;;
34741;SDS011;20968;42.696;23.360;2022-07-29T11:09:35;4.65;;;2.17;;
34741;SDS011;20968;42.696;23.360;2022-07-29T11:12:00;2.40;;;2.20;;
34741;SDS011;20968;42.696;23.360;2022-07-29T11:17:16;3.70;;;2.63;;
34741;SDS011;20968;42.696;23.360;2022-07-29T11:19:42;2.63;;;2.22;;
34741;SDS011;20968;42.696;23.360;2022-07-29T11:22:09;2.47;;;2.22;;
34741;SDS011;20968;42.696;23.360;2022-07-29T11:24:35;3.40;;;2.33;;
34741;SDS011;20968;42.696;23.360;2022-07-29T11:27:17;2.75;;;2.55;;
34741;SDS011;20968;42.696;23.360;2022-07-29T11:29:48;6.28;;;2.55;;
34741;SDS011;20968;42.696;23.360;2022-07-29T11:32:16;2.88;;;2.60;;
34741;SDS011;20968;42.696;23.360;2022-07-29T11:34:44;4.50;;;2.38;;
34741;SDS011;20968;42.696;23.360;2022-07-29T11:39:46;4.70;;;2.72;;
34741;SDS011;20968;42.696;23.360;2022-07-29T11:45:03;2.80;;;2.50;;
34741;SDS011;20968;42.696;23.360;2022-07-29T11:47:33;6.03;;;2.42;;
34741;SDS011;20968;42.696;23.360;2022-07-29T11:50:02;4.28;;;3.05;;
34741;SDS011;20968;42.696;23.360;2022-07-29T11:52:32;7.80;;;2.45;;
34741;SDS011;20968;42.696;23.360;2022-07-29T11:55:02;3.42;;;2.83;;
34741;SDS011;20968;42.696;23.360;2022-07-29T11:57:30;4.55;;;3.10;;
34741;SDS011;20968;42.696;23.360;2022-07-29T11:59:57;5.47;;;3.05;;
34741;SDS011;20968;42.696;23.360;2022-07-29T12:02:23;2.90;;;2.70;;
34741;SDS011;20968;42.696;23.360;2022-07-29T12:04:52;4.25;;;3.20;;
34741;SDS011;20968;42.696;23.360;2022-07-29T12:07:17;3.47;;;3.17;;
34741;SDS011;20968;42.696;23.360;2022-07-29T12:09:50;3.70;;;2.97;;
34741;SDS011;20968;42.696;23.360;2022-07-29T12:12:17;4.60;;;2.60;;
34741;SDS011;20968;42.696;23.360;2022-07-29T12:14:42;5.10;;;2.97;;
34741;SDS011;20968;42.696;23.360;2022-07-29T12:17:27;6.15;;;3.05;;
34741;SDS011;20968;42.696;23.360;2022-07-29T12:19:54;5.78;;;3.50;;
34741;SDS011;20968;42.696;23.360;2022-07-29T12:22:25;9.18;;;3.97;;
34741;SDS011;20968;42.696;23.360;2022-07-29T12:24:52;3.25;;;2.92;;
34741;SDS011;20968;42.696;23.360;2022-07-29T12:27:18;6.18;;;3.30;;
34741;SDS011;20968;42.696;23.360;2022-07-29T12:29:43;5.15;;;4.07;;
34741;SDS011;20968;42.696;23.360;2022-07-29T12:32:08;7.63;;;3.92;;
34741;SDS011;20968;42.696;23.360;2022-07-29T12:34:35;3.55;;;3.25;;
34741;SDS011;20968;42.696;23.360;2022-07-29T12:37:00;4.00;;;3.60;;
34741;SDS011;20968;42.696;23.360;2022-07-29T12:39:26;3.88;;;3.40;;
34741;SDS011;20968;42.696;23.360;2022-07-29T12:41:53;5.03;;;3.50;;
34741;SDS011;20968;42.696;23.360;2022-07-29T12:44:18;3.67;;;3.38;;
34741;SDS011;20968;42.696;23.360;2022-07-29T12:46:44;6.63;;;3.53;;
34741;SDS011;20968;42.696;23.360;2022-07-29T12:49:21;4.13;;;3.80;;
34741;SDS011;20968;42.696;23.360;2022-07-29T12:51:47;3.78;;;3.42;;
34741;SDS011;20968;42.696;23.360;2022-07-29T12:54:13;6.47;;;3.63;;
34741;SDS011;20968;42.696;23.360;2022-07-29T12:56:40;3.28;;;2.85;;
34741;SDS011;20968;42.696;23.360;2022-07-29T12:59:17;4.63;;;3.53;;
34741;SDS011;20968;42.696;23.360;2022-07-29T13:01:45;6.18;;;3.78;;
34741;SDS011;20968;42.696;23.360;2022-07-29T13:04:24;3.35;;;3.05;;
34741;SDS011;20968;42.696;23.360;2022-07-29T13:06:57;5.32;;;2.97;;
34741;SDS011;20968;42.696;23.360;2022-07-29T13:09:35;5.95;;;3.70;;
34741;SDS011;20968;42.696;23.360;2022-07-29T13:12:06;4.20;;;3.35;;
34741;SDS011;20968;42.696;23.360;2022-07-29T13:14:40;6.47;;;3.55;;
34741;SDS011;20968;42.696;23.360;2022-07-29T13:17:11;2.95;;;2.67;;
34741;SDS011;20968;42.696;23.360;2022-07-29T13:19:44;4.57;;;3.88;;
34741;SDS011;20968;42.696;23.360;2022-07-29T13:22:16;3.65;;;3.13;;
34741;SDS011;20968;42.696;23.360;2022-07-29T13:27:18;4.10;;;3.70;;
34741;SDS011;20968;42.696;23.360;2022-07-29T13:29:44;3.75;;;3.45;;
34741;SDS011;20968;42.696;23.360;2022-07-29T13:32:11;5.70;;;3.35;;
34741;SDS011;20968;42.696;23.360;2022-07-29T13:34:37;4.25;;;3.40;;
34741;SDS011;20968;42.696;23.360;2022-07-29T13:37:03;4.40;;;3.38;;
34741;SDS011;20968;42.696;23.360;2022-07-29T13:39:28;3.47;;;3.17;;
34741;SDS011;20968;42.696;23.360;2022-07-29T13:41:53;4.75;;;3.78;;
34741;SDS011;20968;42.696;23.360;2022-07-29T13:44:19;3.95;;;3.60;;
34741;SDS011;20968;42.696;23.360;2022-07-29T13:46:44;5.45;;;3.08;;
34741;SDS011;20968;42.696;23.360;2022-07-29T13:49:10;4.32;;;3.75;;
34741;SDS011;20968;42.696;23.360;2022-07-29T13:51:36;5.05;;;3.20;;
34741;SDS011;20968;42.696;23.360;2022-07-29T13:54:02;4.20;;;3.40;;
34741;SDS011;20968;42.696;23.360;2022-07-29T13:56:28;4.00;;;3.58;;
34741;SDS011;20968;42.696;23.360;2022-07-29T13:58:54;5.18;;;3.97;;
34741;SDS011;20968;42.696;23.360;2022-07-29T14:01:19;6.75;;;3.40;;
34741;SDS011;20968;42.696;23.360;2022-07-29T14:03:45;8.45;;;3.65;;
34741;SDS011;20968;42.696;23.360;2022-07-29T14:06:10;4.50;;;3.15;;
34741;SDS011;20968;42.696;23.360;2022-07-29T14:08:36;4.05;;;3.60;;
34741;SDS011;20968;42.696;23.360;2022-07-29T14:11:01;3.60;;;3.30;;
34741;SDS011;20968;42.696;23.360;2022-07-29T14:13:27;4.35;;;3.45;;
34741;SDS011;20968;42.696;23.360;2022-07-29T14:15:52;5.82;;;2.92;;
34741;SDS011;20968;42.696;23.360;2022-07-29T14:18:18;5.13;;;3.28;;
34741;SDS011;20968;42.696;23.360;2022-07-29T14:20:43;3.58;;;3.28;;
34741;SDS011;20968;42.696;23.360;2022-07-29T14:23:09;7.00;;;3.08;;
34741;SDS011;20968;42.696;23.360;2022-07-29T14:25:34;3.08;;;2.78;;
34741;SDS011;20968;42.696;23.360;2022-07-29T14:27:59;4.50;;;3.85;;
34741;SDS011;20968;42.696;23.360;2022-07-29T14:30:25;3.95;;;3.55;;
34741;SDS011;20968;42.696;23.360;2022-07-29T14:32:50;8.15;;;3.50;;
34741;SDS011;20968;42.696;23.360;2022-07-29T14:35:16;3.65;;;3.35;;
34741;SDS011;20968;42.696;23.360;2022-07-29T14:37:41;4.05;;;3.65;;
34741;SDS011;20968;42.696;23.360;2022-07-29T14:40:07;6.88;;;3.25;;
34741;SDS011;20968;42.696;23.360;2022-07-29T14:42:34;6.78;;;3.60;;
34741;SDS011;20968;42.696;23.360;2022-07-29T14:44:59;5.90;;;3.55;;
34741;SDS011;20968;42.696;23.360;2022-07-29T14:47:25;4.80;;;3.95;;
34741;SDS011;20968;42.696;23.360;2022-07-29T14:49:50;4.70;;;4.00;;
34741;SDS011;20968;42.696;23.360;2022-07-29T14:52:15;5.20;;;3.20;;
34741;SDS011;20968;42.696;23.360;2022-07-29T14:54:41;3.90;;;3.50;;
34741;SDS011;20968;42.696;23.360;2022-07-29T14:57:06;6.00;;;3.65;;
34741;SDS011;20968;42.696;23.360;2022-07-29T14:59:32;3.67;;;3.38;;
34741;SDS011;20968;42.696;23.360;2022-07-29T15:01:57;6.30;;;3.60;;
34741;SDS011;20968;42.696;23.360;2022-07-29T15:04:23;3.78;;;3.47;;
34741;SDS011;20968;42.696;23.360;2022-07-29T15:06:48;5.68;;;3.80;;
34741;SDS011;20968;42.696;23.360;2022-07-29T15:09:13;4.68;;;3.70;;
34741;SDS011;20968;42.696;23.360;2022-07-29T15:11:39;4.05;;;3.65;;
34741;SDS011;20968;42.696;23.360;2022-07-29T15:14:05;3.83;;;3.40;;
34741;SDS011;20968;42.696;23.360;2022-07-29T15:16:30;6.60;;;4.15;;
34741;SDS011;20968;42.696;23.360;2022-07-29T15:18:56;4.60;;;3.65;;